createdAt,value
2023-04-02T00:00:20.013Z,11.05
2023-04-02T00:02:57.886Z,11.02
2023-04-02T00:05:55.215Z,11.02
2023-04-02T00:08:33.809Z,11.04
2023-04-02T00:11:03.542Z,11.01
2023-04-02T00:13:37.506Z,11.04
2023-04-02T00:16:09.676Z,11.05
2023-04-02T00:18:42.635Z,11.06
2023-04-02T00:21:17.281Z,11.06
2023-04-02T00:23:46.178Z,11.07
2023-04-02T00:26:31.000Z,11.01
2023-04-02T00:29:02.455Z,11.00
2023-04-02T00:31:32.453Z,10.99
2023-04-02T00:34:05.526Z,11.00
2023-04-02T00:36:36.697Z,10.99
2023-04-02T00:39:12.103Z,10.95
2023-04-02T00:41:47.812Z,10.94
2023-04-02T00:44:22.199Z,10.89
2023-04-02T00:46:52.353Z,10.93
2023-04-02T00:49:27.436Z,10.96
2023-04-02T00:51:59.315Z,10.96
2023-04-02T00:54:34.499Z,10.93
2023-04-02T00:57:05.139Z,10.88
2023-04-02T00:59:36.923Z,10.80
2023-04-02T01:02:26.482Z,10.71
2023-04-02T01:05:00.717Z,10.75
2023-04-02T01:07:54.994Z,10.63
2023-04-02T01:10:39.483Z,10.67
2023-04-02T01:13:23.186Z,10.64
2023-04-02T01:15:58.941Z,10.69
2023-04-02T01:18:40.773Z,10.68
2023-04-02T01:21:21.849Z,10.66
2023-04-02T01:24:08.215Z,10.69
2023-04-02T01:26:54.076Z,10.68
2023-04-02T01:29:28.827Z,10.71
2023-04-02T01:32:06.116Z,10.73
2023-04-02T01:34:36.366Z,10.74
2023-04-02T01:37:28.768Z,10.75
2023-04-02T01:40:11.832Z,10.77
2023-04-02T01:42:48.056Z,10.80
2023-04-02T01:45:22.745Z,10.82
2023-04-02T01:47:52.205Z,10.83
2023-04-02T01:50:31.455Z,10.81
2023-04-02T01:53:03.076Z,10.76
2023-04-02T01:55:37.696Z,10.76
2023-04-02T01:58:06.808Z,10.76
2023-04-02T02:00:38.637Z,10.78
2023-04-02T02:03:09.375Z,10.79
2023-04-02T02:05:38.350Z,10.79
2023-04-02T02:08:09.006Z,10.80
2023-04-02T02:10:40.804Z,10.78
2023-04-02T02:13:15.920Z,10.79
2023-04-02T02:15:45.748Z,10.81
2023-04-02T02:18:15.497Z,10.82
2023-04-02T02:20:45.992Z,10.81
2023-04-02T02:23:15.181Z,10.81
2023-04-02T02:25:46.884Z,10.81
2023-04-02T02:28:22.327Z,10.74
2023-04-02T02:31:00.392Z,10.76
2023-04-02T02:33:33.624Z,10.73
2023-04-02T02:36:09.572Z,10.74
2023-04-02T02:38:54.116Z,10.75
2023-04-02T02:41:44.929Z,10.74
2023-04-02T02:44:19.283Z,10.72
2023-04-02T02:46:54.022Z,10.71
2023-04-02T02:49:25.685Z,10.73
2023-04-02T02:51:59.595Z,10.73
2023-04-02T02:54:37.530Z,10.74
2023-04-02T02:57:13.682Z,10.75
2023-04-02T02:59:44.801Z,10.74
2023-04-02T03:02:16.802Z,10.69
2023-04-02T03:04:53.147Z,10.70
2023-04-02T03:07:26.727Z,10.70
2023-04-02T03:10:05.923Z,10.71
2023-04-02T03:12:43.460Z,10.70
2023-04-02T03:15:24.353Z,10.70
2023-04-02T03:17:59.822Z,10.68
2023-04-02T03:20:38.457Z,10.69
2023-04-02T03:23:14.784Z,10.68
2023-04-02T03:25:48.745Z,10.66
2023-04-02T03:28:26.738Z,10.66
2023-04-02T03:31:02.504Z,10.66
2023-04-02T03:33:42.273Z,10.65
2023-04-02T03:36:23.205Z,10.66
2023-04-02T03:38:57.211Z,10.64
2023-04-02T03:41:35.322Z,10.63
2023-04-02T03:44:16.053Z,10.64
2023-04-02T03:46:48.873Z,10.65
2023-04-02T03:49:26.886Z,10.63
2023-04-02T03:52:06.260Z,10.65
2023-04-02T03:54:35.850Z,10.64
2023-04-02T03:57:10.850Z,10.63
2023-04-02T03:59:45.138Z,10.64
2023-04-02T04:02:28.270Z,10.63
2023-04-02T04:04:58.095Z,10.63
2023-04-02T04:07:33.704Z,10.61
2023-04-02T04:10:04.293Z,10.60
2023-04-02T04:12:37.030Z,10.60
2023-04-02T04:15:15.330Z,10.64
2023-04-02T04:17:54.124Z,10.62
2023-04-02T04:20:35.478Z,10.63
2023-04-02T04:23:18.265Z,10.65
2023-04-02T04:25:49.444Z,10.64
2023-04-02T04:28:28.028Z,10.66
2023-04-02T04:31:02.086Z,10.66
2023-04-02T04:33:41.198Z,10.66
2023-04-02T04:36:28.403Z,10.67
2023-04-02T04:39:09.430Z,10.66
2023-04-02T04:41:41.394Z,10.67
2023-04-02T04:44:18.207Z,10.67
2023-04-02T04:46:53.945Z,10.69
2023-04-02T04:49:32.238Z,10.68
2023-04-02T04:52:10.066Z,10.67
2023-04-02T04:54:40.534Z,10.67
2023-04-02T04:57:29.085Z,10.68
2023-04-02T05:00:16.526Z,10.68
2023-04-02T05:02:50.514Z,10.66
2023-04-02T05:05:22.676Z,10.68
2023-04-02T05:08:00.159Z,10.67
2023-04-02T05:10:36.206Z,10.65
2023-04-02T05:13:11.041Z,10.64
2023-04-02T05:15:44.564Z,10.66
2023-04-02T05:18:23.018Z,10.69
2023-04-02T05:20:57.889Z,10.70
2023-04-02T05:23:34.127Z,10.72
2023-04-02T05:26:10.417Z,10.72
2023-04-02T05:28:44.336Z,10.73
2023-04-02T05:31:18.438Z,10.73
2023-04-02T05:33:48.505Z,10.75
2023-04-02T05:36:22.393Z,10.76
2023-04-02T05:38:58.012Z,10.80
2023-04-02T05:41:40.414Z,10.82
2023-04-02T05:44:17.481Z,10.81
2023-04-02T05:46:51.191Z,10.83
2023-04-02T05:49:31.095Z,10.78
2023-04-02T05:52:04.947Z,10.82
2023-04-02T05:54:46.038Z,10.85
2023-04-02T05:57:29.552Z,10.88
2023-04-02T06:00:14.414Z,10.91
2023-04-02T06:02:51.420Z,10.94
2023-04-02T06:05:25.310Z,10.93
2023-04-02T06:07:59.534Z,10.97
2023-04-02T06:10:33.835Z,11.00
2023-04-02T06:13:07.457Z,11.01
2023-04-02T06:15:40.786Z,11.05
2023-04-02T06:18:17.960Z,11.05
2023-04-02T06:20:47.932Z,11.02
2023-04-02T06:23:31.579Z,10.93
2023-04-02T06:26:11.465Z,10.65
2023-04-02T06:28:46.551Z,10.62
2023-04-02T06:31:25.059Z,10.54
2023-04-02T06:34:01.173Z,10.50
2023-04-02T06:36:34.214Z,10.49
2023-04-02T06:39:17.766Z,10.49
2023-04-02T06:41:48.019Z,10.49
2023-04-02T06:44:36.715Z,10.40
2023-04-02T06:47:31.349Z,10.43
2023-04-02T06:50:07.260Z,10.49
2023-04-02T06:52:41.894Z,10.51
2023-04-02T06:55:30.111Z,10.41
2023-04-02T06:58:02.235Z,10.38
2023-04-02T07:00:38.882Z,10.38
2023-04-02T07:03:16.948Z,10.47
2023-04-02T07:05:50.271Z,10.50
2023-04-02T07:08:18.917Z,10.49
2023-04-02T07:10:50.040Z,10.58
2023-04-02T07:13:22.741Z,10.51
2023-04-02T07:15:53.947Z,10.58
2023-04-02T07:18:27.961Z,10.57
2023-04-02T07:20:58.714Z,10.59
2023-04-02T07:23:27.559Z,10.54
2023-04-02T07:25:57.495Z,10.52
2023-04-02T07:28:31.088Z,10.44
2023-04-02T07:31:00.238Z,10.45
2023-04-02T07:33:32.405Z,10.47
2023-04-02T07:36:04.423Z,10.39
2023-04-02T07:38:32.366Z,10.35
2023-04-02T07:41:06.629Z,10.22
2023-04-02T07:43:36.579Z,10.14
2023-04-02T07:46:05.625Z,10.05
2023-04-02T07:48:36.491Z,9.97
2023-04-02T07:51:04.827Z,10.07
2023-04-02T07:53:35.502Z,10.14
2023-04-02T07:56:07.406Z,10.11
2023-04-02T07:58:41.953Z,10.11
2023-04-02T08:01:19.530Z,10.18
2023-04-02T08:03:48.387Z,10.16
2023-04-02T08:06:17.941Z,10.21
2023-04-02T08:08:48.110Z,10.27
2023-04-02T08:11:17.022Z,10.31
2023-04-02T08:13:46.552Z,10.34
2023-04-02T08:16:17.470Z,10.38
2023-04-02T08:18:48.773Z,10.45
2023-04-02T08:21:18.126Z,10.50
2023-04-02T08:23:47.148Z,10.61
2023-04-02T08:26:19.958Z,10.69
2023-04-02T08:28:50.327Z,10.74
2023-04-02T08:31:19.069Z,10.80
2023-04-02T08:33:47.305Z,10.83
2023-04-02T08:36:17.428Z,10.79
2023-04-02T08:38:45.691Z,10.82
2023-04-02T08:41:27.924Z,10.83
2023-04-02T08:44:37.541Z,10.82
2023-04-02T08:47:07.980Z,10.88
2023-04-02T08:49:41.673Z,10.91
2023-04-02T08:52:22.747Z,10.91
2023-04-02T08:54:53.348Z,10.86
2023-04-02T08:57:32.927Z,10.80
2023-04-02T09:00:10.625Z,10.85
2023-04-02T09:02:43.362Z,10.94
2023-04-02T09:05:24.474Z,10.99
2023-04-02T09:07:54.334Z,10.99
2023-04-02T09:10:32.617Z,10.99
2023-04-02T09:13:02.805Z,11.06
2023-04-02T09:15:36.828Z,11.04
2023-04-02T09:18:15.140Z,10.99
2023-04-02T09:20:44.324Z,11.01
2023-04-02T09:23:22.480Z,11.04
2023-04-02T09:26:03.559Z,11.07
2023-04-02T09:28:33.182Z,11.13
2023-04-02T09:31:13.091Z,11.09
2023-04-02T09:33:46.005Z,11.17
2023-04-02T09:36:29.333Z,11.08
2023-04-02T09:39:06.971Z,11.11
2023-04-02T09:41:38.913Z,11.10
2023-04-02T09:44:14.632Z,11.00
2023-04-02T09:46:52.886Z,10.98
2023-04-02T09:49:26.061Z,11.01
2023-04-02T09:52:10.041Z,11.16
2023-04-02T09:54:42.049Z,11.24
2023-04-02T09:57:27.786Z,11.32
2023-04-02T10:00:30.752Z,11.27
2023-04-02T10:03:05.639Z,11.20
2023-04-02T10:08:19.113Z,10.94
2023-04-02T10:10:51.616Z,10.88
2023-04-02T10:13:28.356Z,10.61
2023-04-02T10:16:01.625Z,10.64
2023-04-02T10:18:53.094Z,10.59
2023-04-02T10:21:26.941Z,10.62
2023-04-02T10:23:59.179Z,10.65
2023-04-02T10:26:46.796Z,10.56
2023-04-02T10:29:29.812Z,10.55
2023-04-02T10:32:04.203Z,10.61
2023-04-02T10:34:43.961Z,10.60
2023-04-02T10:37:50.916Z,10.52
2023-04-02T10:40:28.326Z,10.45
2023-04-02T10:43:10.432Z,10.43
2023-04-02T10:45:47.581Z,10.50
2023-04-02T10:48:27.081Z,10.51
2023-04-02T10:51:04.748Z,10.59
2023-04-02T10:53:40.862Z,10.61
2023-04-02T10:56:14.720Z,10.64
2023-04-02T10:58:52.686Z,10.68
2023-04-02T11:01:26.101Z,10.70
2023-04-02T11:04:02.471Z,10.69
2023-04-02T11:06:40.987Z,10.70
2023-04-02T11:09:17.909Z,10.66
2023-04-02T11:11:54.646Z,10.68
2023-04-02T11:14:26.029Z,10.76
2023-04-02T11:16:56.759Z,10.79
2023-04-02T11:19:27.807Z,10.76
2023-04-02T11:22:01.326Z,10.72
2023-04-02T11:24:38.147Z,10.65
2023-04-02T11:27:09.552Z,10.64
2023-04-02T11:29:40.092Z,10.54
2023-04-02T11:32:35.714Z,10.51
2023-04-02T11:35:40.918Z,10.47
2023-04-02T11:38:54.995Z,10.53
2023-04-02T11:41:59.478Z,10.57
2023-04-02T11:44:32.979Z,10.51
2023-04-02T11:47:18.711Z,10.52
2023-04-02T11:50:29.130Z,10.56
2023-04-02T11:53:03.263Z,10.54
2023-04-02T11:55:37.050Z,10.54
2023-04-02T11:58:36.509Z,10.55
2023-04-02T12:01:34.288Z,10.59
2023-04-02T12:04:24.876Z,10.66
2023-04-02T12:07:07.034Z,10.73
2023-04-02T12:09:45.930Z,10.73
2023-04-02T12:12:26.888Z,10.74
2023-04-02T12:14:56.896Z,10.72
2023-04-02T12:17:31.555Z,10.66
2023-04-02T12:20:05.057Z,10.60
2023-04-02T12:22:37.186Z,10.58
2023-04-02T12:25:08.721Z,10.52
2023-04-02T12:27:42.702Z,10.47
2023-04-02T12:30:18.435Z,10.49
2023-04-02T12:32:47.825Z,10.50
2023-04-02T12:35:32.345Z,10.60
2023-04-02T12:38:01.205Z,10.61
2023-04-02T12:40:31.338Z,10.57
2023-04-02T12:43:01.103Z,10.57
2023-04-02T12:45:38.923Z,10.59
2023-04-02T12:48:08.263Z,10.56
2023-04-02T12:50:41.677Z,10.55
2023-04-02T12:53:24.131Z,10.49
2023-04-02T12:55:56.192Z,10.44
2023-04-02T12:58:30.969Z,10.38
2023-04-02T13:01:23.786Z,10.30
2023-04-02T13:04:12.377Z,10.23
2023-04-02T13:06:49.296Z,10.25
2023-04-02T13:09:31.724Z,10.29
2023-04-02T13:12:01.457Z,10.32
2023-04-02T13:14:31.983Z,10.32
2023-04-02T13:17:00.251Z,10.32
2023-04-02T13:19:35.825Z,10.28
2023-04-02T13:22:05.412Z,10.33
2023-04-02T13:24:34.618Z,10.27
2023-04-02T13:27:04.611Z,10.17
2023-04-02T13:29:35.887Z,10.11
2023-04-02T13:32:07.862Z,10.08
2023-04-02T13:34:37.488Z,9.88
2023-04-02T13:37:06.082Z,9.81
2023-04-02T13:39:34.815Z,9.78
2023-04-02T13:42:06.502Z,9.76
2023-04-02T13:44:38.139Z,9.64
2023-04-02T13:47:06.446Z,9.61
2023-04-02T13:49:36.974Z,9.63
2023-04-02T13:52:15.288Z,9.58
2023-04-02T13:54:48.768Z,9.48
2023-04-02T13:57:17.154Z,9.51
2023-04-02T13:59:48.096Z,9.51
2023-04-02T14:02:19.108Z,9.53
2023-04-02T14:04:51.732Z,9.63
2023-04-02T14:07:32.034Z,9.66
2023-04-02T14:10:13.922Z,9.69
2023-04-02T14:12:54.787Z,9.72
2023-04-02T14:15:40.350Z,9.53
2023-04-02T14:18:24.056Z,9.53
2023-04-02T14:21:04.993Z,9.54
2023-04-02T14:23:48.023Z,9.42
2023-04-02T14:26:23.266Z,9.47
2023-04-02T14:28:58.957Z,9.29
2023-04-02T14:31:35.056Z,8.96
2023-04-02T14:34:10.857Z,9.10
2023-04-02T14:36:53.202Z,9.03
2023-04-02T14:39:33.463Z,9.10
2023-04-02T14:42:09.203Z,9.12
2023-04-02T14:44:46.960Z,9.11
2023-04-02T14:47:24.725Z,9.06
2023-04-02T14:49:55.700Z,8.95
2023-04-02T14:52:27.867Z,8.89
2023-04-02T14:55:02.231Z,8.83
2023-04-02T14:57:32.641Z,8.87
2023-04-02T15:00:05.125Z,8.87
2023-04-02T15:02:43.395Z,8.92
2023-04-02T15:05:19.862Z,9.04
2023-04-02T15:07:57.627Z,8.89
2023-04-02T15:10:30.999Z,8.97
2023-04-02T15:13:05.210Z,9.02
2023-04-02T15:15:42.527Z,9.06
2023-04-02T15:18:15.363Z,9.03
2023-04-02T15:20:56.663Z,9.03
2023-04-02T15:23:40.190Z,9.10
2023-04-02T15:26:16.723Z,9.00
2023-04-02T15:28:51.888Z,8.89
2023-04-02T15:31:23.412Z,9.01
2023-04-02T15:34:06.792Z,9.10
2023-04-02T15:36:45.863Z,9.13
2023-04-02T15:39:38.444Z,9.12
2023-04-02T15:42:19.597Z,9.12
2023-04-02T15:45:08.162Z,9.16
2023-04-02T15:47:45.430Z,9.19
2023-04-02T15:50:31.560Z,9.12
2023-04-02T15:53:11.182Z,9.16
2023-04-02T15:55:47.116Z,9.12
2023-04-02T15:58:27.161Z,9.10
2023-04-02T16:01:08.408Z,9.14
2023-04-02T16:03:59.365Z,9.12
2023-04-02T16:06:35.253Z,9.05
2023-04-02T16:09:11.409Z,9.05
2023-04-02T16:11:43.474Z,9.05
2023-04-02T16:14:26.199Z,8.99
2023-04-02T16:17:02.089Z,8.93
2023-04-02T16:19:40.026Z,8.80
2023-04-02T16:22:18.032Z,8.77
2023-04-02T16:24:48.015Z,8.77
2023-04-02T16:27:28.159Z,8.73
2023-04-02T16:30:01.908Z,8.81
2023-04-02T16:33:04.156Z,8.85
2023-04-02T16:35:46.349Z,8.78
2023-04-02T16:38:30.700Z,8.76
2023-04-02T16:41:08.697Z,8.76
2023-04-02T16:43:52.380Z,8.69
2023-04-02T16:46:39.597Z,8.76
2023-04-02T16:49:22.005Z,8.75
2023-04-02T16:52:03.185Z,8.66
2023-04-02T16:54:44.041Z,8.68
2023-04-02T16:57:31.034Z,8.68
2023-04-02T17:00:12.068Z,8.65
2023-04-02T17:02:52.910Z,8.68
2023-04-02T17:05:32.628Z,8.53
2023-04-02T17:08:17.489Z,8.59
2023-04-02T17:10:52.715Z,8.56
2023-04-02T17:13:35.816Z,8.48
2023-04-02T17:16:15.566Z,8.45
2023-04-02T17:18:45.001Z,8.42
2023-04-02T17:21:16.448Z,8.41
2023-04-02T17:26:27.160Z,8.16
2023-04-02T17:29:00.331Z,8.11
2023-04-02T17:31:34.135Z,8.13
2023-04-02T17:34:10.841Z,8.08
2023-04-02T17:36:45.284Z,8.03
2023-04-02T17:39:23.032Z,8.02
2023-04-02T17:41:57.912Z,7.98
2023-04-02T17:44:40.984Z,7.95
2023-04-02T17:47:17.613Z,7.91
2023-04-02T17:49:59.360Z,7.90
2023-04-02T17:52:34.270Z,7.89
2023-04-02T17:55:12.330Z,7.93
2023-04-02T17:58:01.040Z,7.95
2023-04-02T18:00:51.143Z,7.94
2023-04-02T18:03:35.771Z,7.90
2023-04-02T18:06:07.594Z,7.89
2023-04-02T18:08:51.025Z,7.83
2023-04-02T18:11:32.609Z,7.87
2023-04-02T18:14:18.633Z,7.85
2023-04-02T18:16:53.888Z,7.85
2023-04-02T18:19:34.445Z,7.87
2023-04-02T18:22:15.679Z,7.94
2023-04-02T18:25:14.930Z,7.94
2023-04-02T18:27:56.143Z,7.88
2023-04-02T18:30:32.104Z,7.77
2023-04-02T18:33:20.509Z,7.71
2023-04-02T18:36:00.866Z,7.66
2023-04-02T18:38:44.177Z,7.69
2023-04-02T18:41:40.716Z,7.66
2023-04-02T18:44:23.669Z,7.60
2023-04-02T18:46:57.716Z,7.59
2023-04-02T18:49:29.614Z,7.57
2023-04-02T18:52:03.317Z,7.53
2023-04-02T18:54:37.885Z,7.47
2023-04-02T18:57:13.315Z,7.45
2023-04-02T18:59:45.899Z,7.49
2023-04-02T19:02:29.040Z,7.49
2023-04-02T19:05:04.023Z,7.42
2023-04-02T19:07:37.514Z,7.46
2023-04-02T19:10:28.309Z,7.39
2023-04-02T19:12:56.964Z,7.39
2023-04-02T19:15:37.670Z,7.42
2023-04-02T19:18:17.426Z,7.46
2023-04-02T19:20:52.374Z,7.45
2023-04-02T19:23:38.540Z,7.41
2023-04-02T19:26:12.670Z,7.38
2023-04-02T19:28:47.769Z,7.38
2023-04-02T19:31:31.467Z,7.49
2023-04-02T19:34:16.578Z,7.47
2023-04-02T19:36:53.097Z,7.42
2023-04-02T19:39:47.000Z,7.38
2023-04-02T19:42:36.166Z,7.45
2023-04-02T19:45:05.594Z,7.46
2023-04-02T19:47:36.555Z,7.42
2023-04-02T19:50:10.131Z,7.40
2023-04-02T19:52:40.627Z,7.40
2023-04-02T19:55:11.196Z,7.38
2023-04-02T19:57:40.253Z,7.38
2023-04-02T20:00:12.575Z,7.43
2023-04-02T20:02:43.075Z,7.35
2023-04-02T20:05:15.465Z,7.31
2023-04-02T20:07:43.500Z,7.35
2023-04-02T20:10:13.808Z,7.36
2023-04-02T20:12:41.849Z,7.36
2023-04-02T20:15:12.686Z,7.43
2023-04-02T20:17:41.109Z,7.34
2023-04-02T20:20:16.273Z,7.25
2023-04-02T20:22:45.223Z,7.17
2023-04-02T20:25:14.260Z,7.11
2023-04-02T20:27:42.686Z,7.01
2023-04-02T20:30:11.527Z,6.97
2023-04-02T20:32:47.473Z,6.90
2023-04-02T20:35:17.684Z,6.87
2023-04-02T20:37:48.722Z,6.85
2023-04-02T20:40:18.917Z,6.88
2023-04-02T20:42:47.762Z,6.90
2023-04-02T20:45:19.198Z,6.86
2023-04-02T20:47:48.108Z,6.89
2023-04-02T20:50:20.781Z,6.91
2023-04-02T20:52:48.950Z,6.93
2023-04-02T20:55:17.509Z,6.92
2023-04-02T20:57:45.807Z,6.90
2023-04-02T21:00:18.571Z,6.90
2023-04-02T21:02:47.053Z,6.91
2023-04-02T21:05:19.381Z,6.92
2023-04-02T21:07:51.650Z,6.88
2023-04-02T21:10:24.026Z,6.91
2023-04-02T21:12:53.258Z,6.96
2023-04-02T21:15:25.905Z,6.96
2023-04-02T21:17:56.869Z,6.97
2023-04-02T21:20:29.213Z,6.98
2023-04-02T21:22:58.112Z,6.95
2023-04-02T21:25:26.356Z,6.90
2023-04-02T21:27:54.953Z,6.90
2023-04-02T21:30:23.469Z,6.88
2023-04-02T21:32:52.813Z,6.87
2023-04-02T21:35:21.264Z,6.90
2023-04-02T21:37:52.933Z,6.90
2023-04-02T21:40:22.499Z,6.87
2023-04-02T21:42:50.392Z,6.84
2023-04-02T21:45:18.847Z,6.82
2023-04-02T21:47:47.159Z,6.80
2023-04-02T21:50:22.609Z,6.78
2023-04-02T21:52:52.565Z,6.75
2023-04-02T21:55:21.050Z,6.77
2023-04-02T21:57:51.601Z,6.74
2023-04-02T22:00:21.204Z,6.71
2023-04-02T22:02:49.528Z,6.77
2023-04-02T22:05:17.840Z,6.76
2023-04-02T22:07:48.819Z,6.76
2023-04-02T22:10:19.410Z,6.70
2023-04-02T22:12:52.737Z,6.69
2023-04-02T22:15:21.196Z,6.68
2023-04-02T22:17:52.363Z,6.69
2023-04-02T22:20:22.291Z,6.73
2023-04-02T22:22:51.840Z,6.72
2023-04-02T22:25:21.772Z,6.71
2023-04-02T22:27:51.953Z,6.68
2023-04-02T22:30:20.375Z,6.68
2023-04-02T22:32:52.189Z,6.69
2023-04-02T22:35:20.936Z,6.67
2023-04-02T22:37:48.941Z,6.65
2023-04-02T22:40:18.279Z,6.66
2023-04-02T22:42:48.943Z,6.66
2023-04-02T22:45:18.341Z,6.62
2023-04-02T22:47:46.980Z,6.64
2023-04-02T22:50:15.917Z,6.63
2023-04-02T22:52:47.875Z,6.65
2023-04-02T22:55:17.934Z,6.64
2023-04-02T22:57:49.921Z,6.64
2023-04-02T23:00:20.444Z,6.62
2023-04-02T23:02:48.695Z,6.63
2023-04-02T23:05:17.098Z,6.62
2023-04-02T23:07:46.153Z,6.62
2023-04-02T23:10:17.733Z,6.65
2023-04-02T23:12:50.560Z,6.66
2023-04-02T23:15:19.035Z,6.68
2023-04-02T23:17:47.263Z,6.70
2023-04-02T23:20:17.020Z,6.67
2023-04-02T23:22:47.517Z,6.65
2023-04-02T23:25:17.196Z,6.65
2023-04-02T23:27:45.523Z,6.65
2023-04-02T23:30:15.529Z,6.66
2023-04-02T23:32:45.762Z,6.63
2023-04-02T23:35:16.483Z,6.63
2023-04-02T23:37:44.456Z,6.60
2023-04-02T23:40:17.609Z,6.60
2023-04-02T23:42:45.743Z,6.61
2023-04-02T23:45:17.568Z,6.62
2023-04-02T23:47:45.991Z,6.66
2023-04-02T23:50:14.183Z,6.67
2023-04-02T23:52:42.498Z,6.64
2023-04-02T23:55:12.226Z,6.63
2023-04-02T23:57:44.144Z,6.62
